Time;durP1;ratioP1;P1;durP2;ratioP2;P2;SDS_P1;SDS_P2;PMS_P1;PMS_P2;Temp;Humidity;BMP_temperature;BMP_pressure;BME280_temperature;BME280_humidity;BME280_pressure;Samples;Min_cycle;Max_cycle;Signal;HPM_P1;HPM_P2
2023/12/25 00:00:04;;;;;;;1.67;1.23;;;10.20;99.90;;;;;;5055059;28;20542;-64
2023/12/25 00:02:32;;;;;;;3.83;1.87;;;10.20;99.90;;;;;;5066801;28;20259;-63
2023/12/25 00:04:59;;;;;;;2.10;1.53;;;10.20;99.90;;;;;;5059276;28;20461;-64
2023/12/25 00:07:25;;;;;;;1.40;1.30;;;10.20;99.90;;;;;;5063854;28;20443;-64
2023/12/25 00:09:52;;;;;;;1.63;1.17;;;10.20;99.90;;;;;;5059900;28;20877;-63
2023/12/25 00:12:19;;;;;;;4.17;1.70;;;10.20;99.90;;;;;;5065286;28;20448;-63
2023/12/25 00:14:46;;;;;;;1.80;1.30;;;10.30;99.90;;;;;;5068929;22;20545;-65
2023/12/25 00:17:15;;;;;;;2.77;1.53;;;10.30;99.90;;;;;;5064464;28;20848;-65
2023/12/25 00:19:42;;;;;;;1.93;1.33;;;10.30;99.90;;;;;;5068686;28;20440;-65
2023/12/25 00:22:09;;;;;;;2.17;1.47;;;10.30;99.90;;;;;;5065010;28;20447;-65
2023/12/25 00:24:35;;;;;;;1.17;1.00;;;10.30;99.90;;;;;;5065332;28;20544;-64
2023/12/25 00:27:02;;;;;;;1.30;1.30;;;10.30;99.90;;;;;;5072051;28;20444;-67
2023/12/25 00:29:30;;;;;;;1.30;1.30;;;10.30;99.90;;;;;;5072208;28;20976;-66
2023/12/25 00:31:57;;;;;;;1.60;1.50;;;10.30;99.90;;;;;;5071238;28;20802;-67
2023/12/25 00:34:25;;;;;;;1.10;1.00;;;10.30;99.90;;;;;;5062248;28;20456;-66
2023/12/25 00:36:52;;;;;;;2.00;1.20;;;10.30;99.90;;;;;;5069349;28;20487;-66
2023/12/25 00:39:19;;;;;;;1.83;1.10;;;10.30;99.90;;;;;;5070709;28;20440;-66
2023/12/25 00:41:45;;;;;;;1.47;1.30;;;10.20;99.90;;;;;;5073509;28;20444;-67
2023/12/25 00:44:12;;;;;;;1.43;1.27;;;10.30;99.90;;;;;;5071738;28;20467;-66
2023/12/25 00:46:39;;;;;;;1.17;1.13;;;10.30;99.90;;;;;;5073183;28;20460;-66
2023/12/25 00:49:07;;;;;;;2.37;2.17;;;10.30;99.90;;;;;;5072736;28;20448;-67
2023/12/25 00:51:35;;;;;;;1.07;0.97;;;10.30;99.90;;;;;;5072556;28;20957;-66
2023/12/25 00:54:02;;;;;;;2.80;1.07;;;10.30;99.90;;;;;;5072433;28;20440;-66
2023/12/25 00:56:29;;;;;;;4.07;1.23;;;10.30;99.90;;;;;;5072006;28;20491;-66
2023/12/25 00:58:55;;;;;;;1.20;1.10;;;10.30;99.90;;;;;;5072272;28;20451;-67
2023/12/25 01:01:22;;;;;;;1.63;1.53;;;10.30;99.90;;;;;;5072987;28;20531;-66
2023/12/25 01:03:49;;;;;;;1.17;1.07;;;10.30;99.90;;;;;;5073123;28;20535;-66
2023/12/25 01:06:16;;;;;;;1.27;1.17;;;10.30;99.90;;;;;;5070059;28;20464;-65
2023/12/25 01:08:44;;;;;;;3.40;3.20;;;10.30;99.90;;;;;;5071365;28;20934;-66
2023/12/25 01:11:11;;;;;;;3.80;1.20;;;10.30;99.90;;;;;;5072662;28;20470;-66
2023/12/25 01:13:38;;;;;;;2.97;1.17;;;10.30;99.90;;;;;;5072902;28;20444;-67
2023/12/25 01:16:05;;;;;;;1.67;1.37;;;10.30;99.90;;;;;;5070307;28;20492;-66
2023/12/25 01:18:32;;;;;;;3.40;1.07;;;10.30;99.90;;;;;;5066326;28;21025;-66
2023/12/25 01:20:59;;;;;;;1.40;1.30;;;10.30;99.90;;;;;;5072092;28;20444;-65
2023/12/25 01:23:26;;;;;;;2.87;1.20;;;10.30;99.90;;;;;;5071888;28;20440;-66
2023/12/25 01:25:54;;;;;;;1.50;1.17;;;10.30;99.90;;;;;;5071323;28;20539;-66
2023/12/25 01:28:21;;;;;;;1.50;1.40;;;10.30;99.90;;;;;;5064737;28;20448;-66
2023/12/25 01:30:48;;;;;;;2.57;1.27;;;10.30;99.90;;;;;;5072300;28;20451;-66
2023/12/25 01:33:15;;;;;;;1.23;1.07;;;10.30;99.90;;;;;;5072133;28;20493;-66
2023/12/25 01:35:41;;;;;;;2.33;1.17;;;10.30;99.90;;;;;;5071921;28;20841;-66
2023/12/25 01:38:08;;;;;;;2.43;1.70;;;10.30;99.90;;;;;;5062694;28;21190;-67
2023/12/25 01:40:36;;;;;;;3.40;1.20;;;10.30;99.90;;;;;;5066175;28;20436;-66
2023/12/25 01:43:05;;;;;;;1.90;1.27;;;10.30;99.90;;;;;;5071787;28;20440;-66
2023/12/25 01:45:31;;;;;;;1.73;1.13;;;10.30;99.90;;;;;;5071196;28;20471;-66
2023/12/25 01:47:58;;;;;;;3.70;1.10;;;10.30;99.90;;;;;;5069707;28;20444;-66
2023/12/25 01:50:25;;;;;;;1.43;1.30;;;10.30;99.90;;;;;;5071646;28;21040;-66
2023/12/25 01:52:52;;;;;;;0.83;0.70;;;10.20;99.90;;;;;;5071120;28;20888;-66
2023/12/25 01:55:19;;;;;;;2.00;1.20;;;10.20;99.90;;;;;;5067315;28;20479;-66
2023/12/25 01:57:47;;;;;;;1.43;1.30;;;10.20;99.90;;;;;;5071728;28;20490;-66
2023/12/25 02:00:16;;;;;;;1.37;0.80;;;10.20;99.90;;;;;;5071697;28;20527;-66
2023/12/25 02:02:43;;;;;;;2.03;0.90;;;10.20;99.90;;;;;;5071799;28;20523;-66
2023/12/25 02:05:10;;;;;;;1.50;1.40;;;10.20;99.90;;;;;;5071235;28;20499;-67
2023/12/25 02:07:40;;;;;;;1.40;1.33;;;10.20;99.90;;;;;;5071327;28;20528;-66
2023/12/25 02:10:08;;;;;;;1.70;1.00;;;10.20;99.90;;;;;;5071195;28;20946;-66
2023/12/25 02:12:36;;;;;;;1.37;1.23;;;10.20;99.90;;;;;;5070960;28;20943;-66
2023/12/25 02:15:03;;;;;;;1.47;1.10;;;10.20;99.90;;;;;;5070270;28;20472;-66
2023/12/25 02:17:32;;;;;;;1.50;1.10;;;10.30;99.90;;;;;;5070595;28;20490;-66
2023/12/25 02:20:00;;;;;;;1.77;1.67;;;10.30;99.90;;;;;;5068231;28;20448;-67
2023/12/25 02:22:27;;;;;;;1.53;1.00;;;10.30;99.90;;;;;;5062544;28;20478;-66
2023/12/25 02:25:00;;;;;;;1.10;1.00;;;10.30;99.90;;;;;;5063253;28;20986;-66
2023/12/25 02:27:28;;;;;;;1.47;1.37;;;10.30;99.90;;;;;;5060545;28;20527;-67
2023/12/25 02:29:55;;;;;;;2.10;0.77;;;10.30;99.90;;;;;;5066646;28;20452;-66
2023/12/25 02:32:22;;;;;;;1.07;0.93;;;10.30;99.90;;;;;;5072087;28;20444;-65
2023/12/25 02:34:49;;;;;;;0.87;0.87;;;10.30;99.90;;;;;;5071817;28;20470;-66
2023/12/25 02:37:15;;;;;;;1.40;1.30;;;10.40;99.90;;;;;;5071752;28;20487;-66
2023/12/25 02:39:42;;;;;;;1.23;0.70;;;10.30;99.90;;;;;;5071650;28;20447;-66
2023/12/25 02:42:09;;;;;;;1.90;0.90;;;10.30;99.90;;;;;;5072013;28;20450;-66
2023/12/25 02:44:37;;;;;;;0.90;0.90;;;10.30;99.90;;;;;;5071104;28;20478;-66
2023/12/25 02:47:04;;;;;;;0.77;0.77;;;10.30;99.90;;;;;;5071124;28;20446;-66
2023/12/25 02:49:31;;;;;;;1.37;0.90;;;10.30;99.90;;;;;;5071651;28;20451;-66
2023/12/25 02:51:58;;;;;;;1.73;1.20;;;10.40;99.90;;;;;;5071621;28;20451;-66
2023/12/25 02:54:25;;;;;;;1.00;1.00;;;10.40;99.90;;;;;;5071704;28;20469;-66
2023/12/25 02:56:51;;;;;;;1.53;1.20;;;10.40;99.90;;;;;;5071459;28;20490;-66
2023/12/25 02:59:18;;;;;;;1.03;1.00;;;10.40;99.90;;;;;;5071431;28;20452;-65
2023/12/25 03:01:46;;;;;;;1.53;1.20;;;10.40;99.90;;;;;;5071948;28;20448;-67
2023/12/25 03:04:13;;;;;;;1.43;0.80;;;10.30;99.90;;;;;;5071865;28;20833;-66
2023/12/25 03:06:40;;;;;;;2.93;0.80;;;10.30;99.90;;;;;;5071177;28;20456;-66
2023/12/25 03:09:07;;;;;;;3.90;1.00;;;10.40;99.90;;;;;;5071384;28;20458;-66
2023/12/25 03:11:34;;;;;;;0.80;0.80;;;10.40;99.90;;;;;;5071507;28;20964;-66
2023/12/25 03:14:01;;;;;;;1.10;0.70;;;10.40;99.90;;;;;;5071856;28;20444;-66
2023/12/25 03:16:27;;;;;;;0.60;0.60;;;10.40;99.90;;;;;;5071341;28;20498;-66
2023/12/25 03:18:56;;;;;;;1.23;0.60;;;10.40;99.90;;;;;;5071354;28;21057;-65
2023/12/25 03:21:22;;;;;;;0.73;0.73;;;10.30;99.90;;;;;;5071372;28;20448;-65
2023/12/25 03:23:49;;;;;;;0.73;0.73;;;10.30;99.90;;;;;;5071209;28;20454;-67
2023/12/25 03:26:16;;;;;;;0.90;0.80;;;10.40;99.90;;;;;;5071586;28;20468;-67
2023/12/25 03:28:43;;;;;;;1.50;0.97;;;10.30;99.90;;;;;;5070711;28;20931;-67
2023/12/25 03:31:10;;;;;;;0.90;0.90;;;10.30;99.90;;;;;;5071591;28;20451;-66
2023/12/25 03:33:37;;;;;;;0.90;0.90;;;10.40;99.90;;;;;;5071636;28;20451;-66
2023/12/25 03:36:06;;;;;;;1.87;0.90;;;10.30;99.90;;;;;;5071387;28;20560;-66
2023/12/25 03:38:33;;;;;;;0.83;0.83;;;10.30;99.90;;;;;;5070974;28;20484;-66
2023/12/25 03:41:00;;;;;;;0.70;0.70;;;10.40;99.90;;;;;;5071566;28;20451;-67
2023/12/25 03:43:27;;;;;;;0.80;0.70;;;10.30;99.90;;;;;;5071458;28;20922;-65
2023/12/25 03:45:54;;;;;;;0.67;0.67;;;10.30;99.90;;;;;;5071256;28;20478;-66
2023/12/25 03:48:21;;;;;;;0.63;0.63;;;10.30;99.90;;;;;;5070685;28;20523;-66
2023/12/25 03:50:48;;;;;;;1.10;0.87;;;10.30;99.90;;;;;;5071219;28;20448;-66
2023/12/25 03:53:16;;;;;;;2.77;0.73;;;10.30;99.90;;;;;;5071018;28;20443;-66
2023/12/25 03:55:43;;;;;;;0.70;0.70;;;10.30;99.90;;;;;;5071014;28;20464;-66
2023/12/25 03:58:09;;;;;;;0.77;0.77;;;10.30;99.90;;;;;;5070459;28;20578;-66
2023/12/25 04:00:36;;;;;;;0.63;0.63;;;10.30;99.90;;;;;;5069274;28;20568;-66
2023/12/25 04:03:03;;;;;;;0.60;0.60;;;10.30;99.90;;;;;;5068346;28;20548;-65
2023/12/25 04:05:31;;;;;;;0.70;0.70;;;10.30;99.90;;;;;;5070132;28;20463;-66
2023/12/25 04:07:58;;;;;;;1.27;0.87;;;10.30;99.90;;;;;;5070366;28;20201;-66
2023/12/25 04:10:26;;;;;;;3.77;0.90;;;10.20;99.90;;;;;;5070415;28;20831;-66
2023/12/25 04:12:53;;;;;;;1.43;0.60;;;10.20;99.90;;;;;;5070417;28;20525;-66
2023/12/25 04:15:20;;;;;;;0.50;0.50;;;10.20;99.90;;;;;;5062324;28;20478;-66
2023/12/25 04:17:47;;;;;;;0.70;0.57;;;10.20;99.90;;;;;;5070364;28;20704;-67
2023/12/25 04:20:14;;;;;;;0.70;0.30;;;10.20;99.90;;;;;;5070017;28;20451;-66
2023/12/25 04:22:40;;;;;;;0.60;0.60;;;10.20;99.90;;;;;;5070739;28;20820;-66
2023/12/25 04:25:08;;;;;;;1.93;0.30;;;10.20;99.90;;;;;;5069936;28;20464;-66
2023/12/25 04:27:36;;;;;;;1.37;0.80;;;10.20;99.90;;;;;;5068856;28;20523;-66
2023/12/25 04:30:03;;;;;;;0.93;0.50;;;10.20;99.90;;;;;;5070242;28;20934;-66
2023/12/25 04:32:29;;;;;;;1.10;0.53;;;10.20;99.90;;;;;;5070771;28;20475;-66
2023/12/25 04:34:56;;;;;;;1.47;0.40;;;10.20;99.90;;;;;;5072183;28;21071;-67
2023/12/25 04:37:23;;;;;;;0.60;0.60;;;10.10;99.90;;;;;;5073574;28;21009;-66
2023/12/25 04:39:50;;;;;;;0.60;0.60;;;10.10;99.90;;;;;;5074324;28;20447;-66
2023/12/25 04:42:17;;;;;;;1.23;0.80;;;10.10;99.90;;;;;;5074212;28;20455;-66
2023/12/25 04:44:45;;;;;;;1.10;0.60;;;10.00;99.90;;;;;;5074039;28;21131;-66
2023/12/25 04:47:12;;;;;;;0.33;0.30;;;10.00;99.90;;;;;;5074153;28;20527;-66
2023/12/25 04:49:39;;;;;;;0.63;0.63;;;10.00;99.90;;;;;;5073889;28;20451;-66
2023/12/25 04:52:06;;;;;;;1.00;0.60;;;10.00;99.90;;;;;;5074026;28;21034;-67
2023/12/25 04:54:33;;;;;;;2.15;0.70;;;10.10;99.90;;;;;;5074031;28;20201;-66
2023/12/25 04:56:59;;;;;;;0.70;0.70;;;10.10;99.90;;;;;;5074038;28;20717;-66
2023/12/25 04:59:27;;;;;;;0.50;0.50;;;10.10;99.90;;;;;;5073902;28;20221;-66
2023/12/25 05:01:55;;;;;;;0.70;0.70;;;10.10;99.90;;;;;;5073994;28;20475;-66
2023/12/25 05:04:22;;;;;;;1.07;0.70;;;10.10;99.90;;;;;;5073933;28;20213;-65
2023/12/25 05:06:49;;;;;;;1.17;0.47;;;10.10;99.90;;;;;;5073953;28;20536;-66
2023/12/25 05:09:16;;;;;;;0.40;0.40;;;10.10;99.90;;;;;;5073563;28;20539;-67
2023/12/25 05:11:43;;;;;;;0.77;0.77;;;10.10;99.90;;;;;;5074087;28;20208;-66
2023/12/25 05:14:08;;;;;;;0.50;0.50;;;10.00;99.90;;;;;;5073711;28;20454;-66
2023/12/25 05:16:35;;;;;;;0.73;0.70;;;10.10;99.90;;;;;;5073349;28;20562;-67
2023/12/25 05:19:03;;;;;;;0.70;0.70;;;10.10;99.90;;;;;;5073759;28;20515;-66
2023/12/25 05:21:30;;;;;;;0.93;0.50;;;10.10;99.90;;;;;;5073732;28;20458;-66
2023/12/25 05:23:57;;;;;;;0.63;0.63;;;10.10;99.90;;;;;;5073414;28;20440;-66
2023/12/25 05:26:25;;;;;;;0.77;0.50;;;10.10;99.90;;;;;;5073380;28;20486;-66
2023/12/25 05:28:52;;;;;;;0.50;0.43;;;10.10;99.90;;;;;;5073202;28;20448;-67
2023/12/25 05:31:19;;;;;;;0.63;0.40;;;10.10;99.90;;;;;;5073301;28;20440;-67
2023/12/25 05:33:45;;;;;;;1.47;0.43;;;10.00;99.90;;;;;;5073566;28;20820;-66
2023/12/25 05:36:13;;;;;;;0.60;0.43;;;10.00;99.90;;;;;;5073326;28;20472;-66
2023/12/25 05:38:40;;;;;;;0.40;0.40;;;10.00;99.90;;;;;;5072982;28;20494;-66
2023/12/25 05:41:08;;;;;;;0.63;0.63;;;10.00;99.90;;;;;;5073158;28;20443;-66
2023/12/25 05:43:34;;;;;;;0.73;0.50;;;10.00;99.90;;;;;;5073154;28;20452;-66
2023/12/25 05:46:01;;;;;;;0.30;0.30;;;10.00;99.90;;;;;;5071709;28;20501;-66
2023/12/25 05:48:28;;;;;;;0.60;0.30;;;10.00;99.90;;;;;;5072732;28;20444;-66
2023/12/25 05:50:55;;;;;;;0.73;0.73;;;10.00;99.90;;;;;;5073160;28;20532;-66
2023/12/25 05:53:24;;;;;;;0.40;0.40;;;10.00;99.90;;;;;;5073026;28;20447;-66
2023/12/25 05:55:51;;;;;;;0.50;0.40;;;10.00;99.90;;;;;;5072733;28;20997;-65
2023/12/25 05:58:18;;;;;;;1.63;0.70;;;10.00;99.90;;;;;;5072658;28;20578;-66
2023/12/25 06:00:45;;;;;;;0.50;0.50;;;10.00;99.90;;;;;;5073028;28;20448;-66
2023/12/25 06:03:12;;;;;;;0.50;0.50;;;10.00;99.90;;;;;;5072901;28;20444;-66
2023/12/25 06:05:38;;;;;;;0.43;0.43;;;10.00;99.90;;;;;;5072772;28;20522;-67
2023/12/25 06:08:06;;;;;;;1.23;0.50;;;10.00;99.90;;;;;;5072656;28;20450;-66
2023/12/25 06:10:34;;;;;;;3.20;0.87;;;10.00;99.90;;;;;;5072394;28;20962;-66
2023/12/25 06:13:01;;;;;;;1.07;0.40;;;10.00;99.90;;;;;;5072442;28;20455;-66
2023/12/25 06:15:28;;;;;;;0.83;0.40;;;10.00;99.90;;;;;;5096159;22;20575;-69
2023/12/25 06:17:54;;;;;;;0.30;0.30;;;10.00;99.90;;;;;;5072321;28;20846;-69
2023/12/25 06:20:23;;;;;;;0.90;0.70;;;10.00;99.90;;;;;;5072057;28;20443;-69
2023/12/25 06:22:50;;;;;;;0.43;0.43;;;9.90;99.90;;;;;;5072313;28;20444;-69
2023/12/25 06:25:17;;;;;;;0.60;0.60;;;9.90;99.90;;;;;;5072199;28;20603;-69
2023/12/25 06:27:45;;;;;;;0.50;0.50;;;9.90;99.90;;;;;;5072472;28;20499;-69
2023/12/25 06:30:12;;;;;;;0.40;0.40;;;9.80;99.90;;;;;;5072224;28;20950;-69
2023/12/25 06:32:41;;;;;;;0.50;0.50;;;9.80;99.90;;;;;;5072500;28;20216;-69
2023/12/25 06:35:08;;;;;;;0.67;0.67;;;9.80;99.90;;;;;;5070942;28;20566;-69
2023/12/25 06:37:35;;;;;;;0.60;0.60;;;9.70;99.90;;;;;;5071956;28;20558;-69
2023/12/25 06:40:02;;;;;;;1.03;0.50;;;9.70;99.90;;;;;;5070599;28;20547;-69
2023/12/25 06:42:29;;;;;;;0.80;0.80;;;9.70;99.90;;;;;;5071894;28;20440;-69
2023/12/25 06:44:57;;;;;;;1.30;0.57;;;9.70;99.90;;;;;;5071378;28;20443;-69
2023/12/25 06:47:24;;;;;;;2.17;2.07;;;9.70;99.90;;;;;;5070389;28;20444;-69
2023/12/25 06:49:51;;;;;;;1.48;1.38;;;9.60;99.90;;;;;;5071806;28;21010;-69
2023/12/25 06:52:17;;;;;;;0.93;0.93;;;9.60;99.90;;;;;;5071653;28;20209;-68
2023/12/25 06:54:44;;;;;;;1.00;0.90;;;9.60;99.90;;;;;;5071397;28;20647;-68
2023/12/25 06:57:13;;;;;;;4.60;4.30;;;9.50;99.90;;;;;;5070701;28;20555;-68
2023/12/25 06:59:41;;;;;;;1.87;1.47;;;9.50;99.90;;;;;;5068366;28;20436;-68
2023/12/25 07:02:09;;;;;;;1.05;1.05;;;9.50;99.90;;;;;;5071067;28;20439;-68
2023/12/25 07:04:36;;;;;;;0.77;0.77;;;9.40;99.90;;;;;;5067946;28;20473;-68
2023/12/25 07:07:03;;;;;;;0.60;0.60;;;9.40;99.90;;;;;;5071312;28;20230;-68
2023/12/25 07:09:30;;;;;;;1.10;1.10;;;9.40;99.90;;;;;;5071739;28;20996;-68
2023/12/25 07:11:57;;;;;;;1.55;1.45;;;9.40;99.90;;;;;;5071925;28;20212;-68
2023/12/25 07:14:23;;;;;;;1.47;1.37;;;9.40;99.90;;;;;;5071489;28;20292;-68
2023/12/25 07:16:51;;;;;;;1.50;1.40;;;9.40;99.90;;;;;;5071293;28;20562;-68
2023/12/25 07:19:19;;;;;;;1.57;1.47;;;9.40;99.90;;;;;;5071290;28;20494;-68
2023/12/25 07:21:46;;;;;;;1.30;1.13;;;9.30;99.90;;;;;;5071480;28;20482;-68
2023/12/25 07:24:13;;;;;;;0.77;0.77;;;9.30;99.90;;;;;;5071655;28;20444;-68
2023/12/25 07:26:39;;;;;;;1.20;1.20;;;9.30;99.90;;;;;;5071302;28;20849;-68
2023/12/25 07:29:06;;;;;;;0.80;0.80;;;9.30;99.90;;;;;;5071029;28;20205;-68
2023/12/25 07:31:33;;;;;;;0.85;0.85;;;9.30;99.90;;;;;;5071464;28;20454;-68
2023/12/25 07:34:00;;;;;;;1.77;1.20;;;9.30;99.90;;;;;;5071082;28;20259;-68
2023/12/25 07:36:28;;;;;;;1.50;1.40;;;9.30;99.90;;;;;;5071519;28;20236;-68
2023/12/25 07:38:55;;;;;;;0.80;0.80;;;9.30;99.90;;;;;;5071285;28;20829;-68
2023/12/25 07:41:23;;;;;;;3.13;1.07;;;9.30;99.90;;;;;;5071190;28;20452;-68
2023/12/25 07:43:50;;;;;;;1.15;1.05;;;9.20;99.90;;;;;;5071097;28;20930;-68
2023/12/25 07:46:17;;;;;;;1.48;1.38;;;9.20;99.90;;;;;;5071042;28;20320;-68
2023/12/25 07:48:44;;;;;;;1.02;0.95;;;9.20;99.90;;;;;;5070912;28;20220;-68
2023/12/25 07:51:11;;;;;;;0.82;0.82;;;9.20;99.90;;;;;;5071186;28;20209;-68
2023/12/25 07:53:39;;;;;;;1.17;1.15;;;9.20;99.90;;;;;;5071394;28;20205;-68
2023/12/25 07:56:06;;;;;;;2.22;1.58;;;9.30;99.90;;;;;;5071009;28;20235;-68
2023/12/25 07:58:33;;;;;;;3.83;1.33;;;9.30;99.90;;;;;;5070958;28;20781;-68
2023/12/25 08:01:00;;;;;;;2.22;1.70;;;9.30;99.90;;;;;;5070912;28;20440;-68
2023/12/25 08:03:27;;;;;;;3.38;3.15;;;9.30;99.90;;;;;;5070854;28;20316;-68
2023/12/25 08:05:54;;;;;;;2.30;2.20;;;9.30;99.90;;;;;;5070956;28;20221;-68
2023/12/25 08:08:22;;;;;;;1.67;1.58;;;9.20;99.90;;;;;;5070840;28;20202;-68
2023/12/25 08:10:50;;;;;;;2.37;2.17;;;9.20;99.90;;;;;;5074580;28;20305;-68
2023/12/25 08:13:18;;;;;;;0.98;0.88;;;9.30;99.90;;;;;;5074878;28;20538;-68
2023/12/25 08:15:44;;;;;;;1.08;0.95;;;9.30;99.90;;;;;;5074645;28;20237;-68
2023/12/25 08:18:11;;;;;;;1.50;1.45;;;9.20;99.90;;;;;;5074680;28;20255;-68
2023/12/25 08:20:38;;;;;;;1.30;1.20;;;9.20;99.90;;;;;;5074892;28;20644;-68
2023/12/25 08:23:05;;;;;;;1.13;0.98;;;9.20;99.90;;;;;;5074847;28;20216;-68
2023/12/25 08:25:32;;;;;;;0.70;0.70;;;9.20;99.90;;;;;;5074607;28;20232;-68
2023/12/25 08:28:00;;;;;;;0.80;0.80;;;9.20;99.90;;;;;;5074488;28;20205;-67
2023/12/25 08:30:27;;;;;;;1.30;1.15;;;9.20;99.90;;;;;;5074064;28;20201;-67
2023/12/25 08:32:54;;;;;;;3.67;1.50;;;9.10;99.90;;;;;;5074547;28;20290;-67
2023/12/25 08:35:21;;;;;;;1.80;1.40;;;9.10;99.90;;;;;;5072591;28;20232;-67
2023/12/25 08:37:48;;;;;;;0.98;0.98;;;9.10;99.90;;;;;;5074121;28;20248;-67
2023/12/25 08:40:15;;;;;;;0.60;0.60;;;9.20;99.90;;;;;;5073969;28;20218;-67
2023/12/25 08:42:42;;;;;;;0.68;0.68;;;9.20;99.90;;;;;;5074141;28;20289;-67
2023/12/25 08:45:11;;;;;;;1.05;0.80;;;9.10;99.90;;;;;;5073857;28;20274;-67
2023/12/25 08:47:37;;;;;;;1.33;1.33;;;9.10;99.90;;;;;;5074245;28;20235;-67
2023/12/25 08:50:05;;;;;;;1.17;1.08;;;9.10;99.90;;;;;;5073885;28;20436;-67
2023/12/25 08:52:32;;;;;;;1.00;1.00;;;9.10;99.90;;;;;;5074182;28;20647;-67
2023/12/25 08:54:59;;;;;;;1.13;1.02;;;9.20;99.90;;;;;;5073794;28;20204;-67
2023/12/25 08:57:25;;;;;;;1.80;0.90;;;9.20;99.90;;;;;;5073788;28;20228;-67
2023/12/25 08:59:52;;;;;;;0.90;0.90;;;9.20;99.90;;;;;;5073906;28;20308;-67
2023/12/25 09:02:20;;;;;;;0.80;0.80;;;9.20;99.90;;;;;;5073871;28;20212;-67
2023/12/25 09:04:48;;;;;;;2.17;1.73;;;9.20;99.90;;;;;;5073872;28;20209;-67
2023/12/25 09:07:16;;;;;;;1.30;1.30;;;9.20;99.90;;;;;;5073277;28;20456;-67
2023/12/25 09:09:43;;;;;;;2.80;2.60;;;9.20;99.90;;;;;;5073653;28;20232;-67
2023/12/25 09:12:09;;;;;;;1.15;0.98;;;9.20;99.90;;;;;;5068597;28;20564;-67
2023/12/25 09:14:36;;;;;;;1.23;1.20;;;9.30;99.90;;;;;;5064952;28;20292;-67
2023/12/25 09:17:03;;;;;;;1.23;0.77;;;9.20;99.90;;;;;;5071334;28;20225;-67
2023/12/25 09:19:31;;;;;;;0.70;0.70;;;9.20;99.90;;;;;;5068051;28;21069;-68
2023/12/25 09:21:59;;;;;;;0.82;0.80;;;9.30;99.90;;;;;;5073034;28;20444;-68
2023/12/25 09:24:26;;;;;;;2.60;0.70;;;9.30;99.90;;;;;;5072535;28;20206;-68
2023/12/25 09:26:53;;;;;;;0.77;0.77;;;9.30;99.90;;;;;;5072782;28;20742;-68
2023/12/25 09:29:20;;;;;;;0.93;0.93;;;9.30;99.90;;;;;;5072821;28;20676;-68
2023/12/25 09:31:47;;;;;;;1.02;0.77;;;9.30;99.90;;;;;;5072852;28;20559;-68
2023/12/25 09:34:14;;;;;;;1.60;1.10;;;9.30;99.90;;;;;;5072817;28;20210;-68
2023/12/25 09:36:42;;;;;;;1.83;1.30;;;9.30;99.90;;;;;;5072768;28;20546;-68
2023/12/25 09:39:09;;;;;;;1.33;1.23;;;9.30;99.90;;;;;;5070178;28;20483;-68
2023/12/25 09:41:36;;;;;;;3.25;1.30;;;9.30;99.90;;;;;;5072790;28;20240;-68
2023/12/25 09:44:04;;;;;;;1.42;1.33;;;9.30;99.90;;;;;;5072599;28;20205;-67
2023/12/25 09:46:31;;;;;;;0.65;0.65;;;9.30;99.90;;;;;;5065466;28;20340;-68
2023/12/25 09:48:59;;;;;;;1.45;0.90;;;9.30;99.90;;;;;;5072366;28;20212;-68
2023/12/25 09:51:27;;;;;;;2.87;0.90;;;9.30;99.90;;;;;;5072561;28;20201;-67
2023/12/25 09:53:55;;;;;;;0.80;0.80;;;9.30;99.90;;;;;;5072469;28;20530;-68
2023/12/25 09:56:24;;;;;;;1.00;1.00;;;9.30;99.90;;;;;;5072283;28;20218;-67
2023/12/25 09:58:53;;;;;;;2.85;0.93;;;9.30;99.90;;;;;;5072052;28;20483;-68
2023/12/25 10:01:21;;;;;;;1.13;1.10;;;9.30;99.90;;;;;;5067920;28;20216;-69
2023/12/25 10:03:48;;;;;;;1.10;1.10;;;9.30;99.90;;;;;;5072234;28;20198;-68
2023/12/25 10:06:15;;;;;;;1.30;1.20;;;9.30;99.90;;;;;;5071985;28;20464;-68
2023/12/25 10:08:42;;;;;;;1.35;1.25;;;9.30;99.90;;;;;;5072241;28;20926;-68
2023/12/25 10:11:14;;;;;;;0.80;0.80;;;9.30;99.90;;;;;;5071849;28;20228;-67
2023/12/25 10:13:41;;;;;;;2.13;2.00;;;9.30;99.90;;;;;;5072343;28;20622;-68
2023/12/25 10:16:08;;;;;;;2.40;1.80;;;9.30;99.90;;;;;;5071665;28;20352;-68
2023/12/25 10:18:38;;;;;;;0.93;0.93;;;9.30;99.90;;;;;;5071719;28;20450;-68
2023/12/25 10:21:05;;;;;;;1.90;0.90;;;9.30;99.90;;;;;;5072066;28;20444;-68
2023/12/25 10:23:33;;;;;;;1.60;1.00;;;9.30;99.90;;;;;;5072316;28;20796;-69
2023/12/25 10:26:02;;;;;;;1.23;0.70;;;9.30;99.90;;;;;;5071767;28;20559;-68
2023/12/25 10:28:32;;;;;;;0.90;0.90;;;9.30;99.90;;;;;;5069810;28;20825;-62
2023/12/25 10:31:00;;;;;;;0.93;0.68;;;9.30;99.90;;;;;;5071010;28;20216;-61
2023/12/25 10:33:27;;;;;;;1.73;0.70;;;9.30;99.90;;;;;;5068655;28;20582;-62
2023/12/25 10:36:03;;;;;;;1.48;0.60;;;9.30;99.90;;;;;;5064936;28;20218;-62
2023/12/25 10:38:33;;;;;;;0.60;0.60;;;9.40;99.90;;;;;;5063383;28;20198;-61
2023/12/25 10:41:17;;;;;;;0.70;0.70;;;9.30;99.90;;;;;;5066431;28;20907;-62
2023/12/25 10:43:50;;;;;;;0.60;0.60;;;9.30;99.90;;;;;;5065514;28;20448;-61
2023/12/25 10:46:20;;;;;;;0.90;0.90;;;9.30;99.90;;;;;;5071411;28;20460;-62
2023/12/25 10:48:49;;;;;;;1.00;1.00;;;9.30;99.90;;;;;;5071053;28;20440;-62
2023/12/25 10:51:21;;;;;;;0.85;0.82;;;9.30;99.90;;;;;;5071276;28;20475;-62
2023/12/25 10:53:49;;;;;;;0.70;0.47;;;9.20;99.90;;;;;;5071683;28;20653;-62
2023/12/25 10:56:17;;;;;;;0.80;0.80;;;9.20;99.90;;;;;;5069353;28;20498;-62
2023/12/25 10:58:46;;;;;;;1.10;1.10;;;9.20;99.90;;;;;;5071182;28;20198;-61
2023/12/25 11:01:13;;;;;;;0.97;0.97;;;9.20;99.90;;;;;;5071272;28;20454;-61
2023/12/25 11:03:40;;;;;;;0.70;0.70;;;9.20;99.90;;;;;;5071353;28;20451;-62
2023/12/25 11:06:08;;;;;;;1.40;1.25;;;9.20;99.90;;;;;;5071091;28;20348;-62
2023/12/25 11:08:35;;;;;;;0.77;0.77;;;9.30;99.90;;;;;;5070623;28;20224;-62
2023/12/25 11:11:02;;;;;;;1.27;1.17;;;9.30;99.90;;;;;;5068133;28;20247;-61
2023/12/25 11:13:29;;;;;;;0.85;0.85;;;9.30;99.90;;;;;;5071318;28;20523;-62
2023/12/25 11:15:58;;;;;;;0.97;0.77;;;9.30;99.90;;;;;;5070964;28;20236;-62
2023/12/25 11:18:24;;;;;;;2.15;0.65;;;9.30;99.90;;;;;;5070804;28;20446;-62
2023/12/25 11:21:04;;;;;;;0.70;0.70;;;9.40;99.90;;;;;;5071087;28;20218;-62
2023/12/25 11:23:32;;;;;;;0.60;0.60;;;9.40;99.90;;;;;;5067212;28;20320;-61
2023/12/25 11:26:00;;;;;;;0.93;0.50;;;9.40;99.90;;;;;;5066167;28;20332;-61
2023/12/25 11:28:27;;;;;;;0.60;0.60;;;9.40;99.90;;;;;;5064253;28;20632;-60
2023/12/25 11:30:54;;;;;;;1.40;0.83;;;9.50;99.90;;;;;;5065518;28;20523;-62
2023/12/25 11:33:22;;;;;;;0.87;0.87;;;9.50;99.90;;;;;;5071052;28;20446;-62
2023/12/25 11:35:50;;;;;;;0.75;0.60;;;9.50;99.90;;;;;;5070793;28;21008;-62
2023/12/25 11:38:29;;;;;;;0.83;0.83;;;9.50;99.90;;;;;;5069490;28;20233;-61
2023/12/25 11:41:02;;;;;;;1.80;1.70;;;9.50;99.90;;;;;;5070650;28;21031;-62
2023/12/25 11:43:32;;;;;;;1.63;1.07;;;9.50;99.90;;;;;;5072498;28;20440;-60
2023/12/25 11:46:03;;;;;;;0.73;0.73;;;9.50;99.90;;;;;;5074756;28;20464;-62
2023/12/25 11:48:33;;;;;;;0.80;0.60;;;9.50;99.90;;;;;;5074741;28;20451;-62
2023/12/25 11:51:01;;;;;;;0.70;0.60;;;9.60;99.90;;;;;;5074819;28;20439;-61
2023/12/25 11:53:36;;;;;;;1.00;0.90;;;9.60;99.90;;;;;;5074763;28;20459;-62
2023/12/25 11:56:04;;;;;;;0.53;0.53;;;9.60;99.90;;;;;;5075010;28;20467;-63
2023/12/25 11:58:31;;;;;;;0.60;0.60;;;9.70;99.90;;;;;;5074532;28;20527;-62
2023/12/25 12:00:58;;;;;;;1.10;1.10;;;9.60;99.90;;;;;;5074804;28;20710;-62
2023/12/25 12:03:25;;;;;;;0.90;0.57;;;9.60;99.90;;;;;;5068265;28;20448;-62
2023/12/25 12:05:54;;;;;;;0.63;0.63;;;9.70;99.90;;;;;;5067701;28;20466;-61
2023/12/25 12:08:21;;;;;;;0.60;0.60;;;9.70;99.90;;;;;;5068869;28;20831;-61
2023/12/25 12:10:47;;;;;;;0.63;0.63;;;9.70;99.90;;;;;;5072902;28;20808;-62
2023/12/25 12:13:15;;;;;;;0.50;0.50;;;9.70;99.90;;;;;;5073739;28;20534;-62
2023/12/25 12:15:42;;;;;;;0.80;0.80;;;9.70;99.90;;;;;;5096357;22;20491;-60
2023/12/25 12:18:09;;;;;;;1.53;0.70;;;9.70;99.90;;;;;;5093632;28;20522;-61
2023/12/25 12:20:37;;;;;;;1.37;1.00;;;9.70;99.90;;;;;;5092758;28;20492;-60
2023/12/25 12:23:12;;;;;;;0.70;0.70;;;9.70;99.90;;;;;;5094405;28;20530;-60
2023/12/25 12:25:39;;;;;;;0.77;0.77;;;9.70;99.90;;;;;;5091521;28;20439;-59
2023/12/25 12:28:06;;;;;;;1.40;1.40;;;9.70;99.90;;;;;;5073800;28;20954;-60
2023/12/25 12:30:33;;;;;;;2.60;2.50;;;9.70;99.90;;;;;;5073656;28;20444;-59
2023/12/25 12:32:59;;;;;;;1.80;1.30;;;9.70;99.90;;;;;;5073387;28;20217;-58
2023/12/25 12:35:28;;;;;;;1.00;1.00;;;9.70;99.90;;;;;;5074587;28;20440;-61
2023/12/25 12:37:55;;;;;;;0.70;0.70;;;9.70;99.90;;;;;;5073778;28;20832;-58
2023/12/25 12:40:25;;;;;;;1.20;1.10;;;9.70;99.90;;;;;;5072513;28;20490;-58
2023/12/25 12:42:52;;;;;;;1.13;1.13;;;9.70;99.90;;;;;;5071800;28;20444;-59
2023/12/25 12:45:19;;;;;;;0.60;0.60;;;9.70;99.90;;;;;;5070789;28;20897;-59
2023/12/25 12:47:46;;;;;;;0.60;0.60;;;9.70;99.90;;;;;;5072726;28;21029;-60
2023/12/25 12:50:13;;;;;;;1.07;0.70;;;9.80;99.90;;;;;;5072024;28;20530;-59
2023/12/25 12:52:40;;;;;;;1.40;1.30;;;9.70;99.90;;;;;;5066629;28;20448;-57